Time;durP1;ratioP1;P1;durP2;ratioP2;P2;SDS_P1;SDS_P2;PMS_P1;PMS_P2;Temp;Humidity;BMP_temperature;BMP_pressure;BME280_temperature;BME280_humidity;BME280_pressure;Samples;Min_cycle;Max_cycle;Signal;HPM_P1;HPM_P2
2021/03/24 00:01:26;;;;;;;24.02;5.75;;;17.80;99.90;;;;;;5079987;28;20035;-68
2021/03/24 00:03:53;;;;;;;32.50;5.68;;;17.70;99.90;;;;;;5056212;28;20516;-68
2021/03/24 00:06:20;;;;;;;25.75;5.18;;;17.50;99.90;;;;;;5072424;28;20140;-68
2021/03/24 00:08:47;;;;;;;19.88;5.55;;;17.70;99.90;;;;;;5076154;28;20043;-68
2021/03/24 00:11:15;;;;;;;18.33;5.28;;;17.70;99.90;;;;;;5078126;28;20367;-70
2021/03/24 00:13:43;;;;;;;19.92;4.55;;;17.70;99.90;;;;;;5077023;28;20483;-69
2021/03/24 00:16:11;;;;;;;23.75;4.53;;;17.60;99.90;;;;;;5074967;28;20059;-69
2021/03/24 00:18:38;;;;;;;26.57;6.03;;;17.90;99.90;;;;;;5078662;28;20430;-68
2021/03/24 00:21:06;;;;;;;25.85;5.30;;;17.80;99.90;;;;;;5076226;28;20060;-66
2021/03/24 00:23:33;;;;;;;29.30;6.22;;;17.60;99.90;;;;;;5078113;28;20039;-69
2021/03/24 00:25:59;;;;;;;26.98;5.57;;;17.90;99.90;;;;;;5077048;28;20559;-69
2021/03/24 00:28:26;;;;;;;22.50;4.90;;;17.90;99.90;;;;;;5077288;28;20052;-69
2021/03/24 00:30:53;;;;;;;22.63;5.22;;;17.80;99.90;;;;;;5076729;28;20025;-67
2021/03/24 00:33:25;;;;;;;21.02;4.25;;;17.70;99.90;;;;;;5075896;28;20024;-66
2021/03/24 00:35:53;;;;;;;25.55;4.50;;;17.80;99.90;;;;;;5075500;28;20024;-72
2021/03/24 00:38:22;;;;;;;27.43;4.23;;;17.70;99.90;;;;;;5074666;28;21291;-68
2021/03/24 00:40:54;;;;;;;28.48;5.40;;;17.50;99.90;;;;;;5074590;28;20274;-72
2021/03/24 00:43:22;;;;;;;21.15;4.53;;;17.40;99.90;;;;;;5074296;28;20050;-70
2021/03/24 00:45:49;;;;;;;22.58;5.05;;;17.40;99.90;;;;;;5089018;28;20441;-68
2021/03/24 00:48:58;;;;;;;24.17;4.35;;;17.20;99.90;;;;;;5074892;28;20066;-69
2021/03/24 00:51:25;;;;;;;23.70;3.90;;;17.00;99.90;;;;;;5071092;28;20526;-68
2021/03/24 00:53:54;;;;;;;22.45;5.97;;;17.00;99.90;;;;;;5080124;28;20076;-68
2021/03/24 00:56:24;;;;;;;27.27;4.10;;;16.90;99.90;;;;;;5094497;28;20091;-70
2021/03/24 00:58:51;;;;;;;23.70;4.75;;;16.60;99.90;;;;;;5096624;28;20072;-67
2021/03/24 01:01:18;;;;;;;25.98;5.78;;;16.70;99.90;;;;;;5090511;28;20035;-69
2021/03/24 01:03:48;;;;;;;22.83;4.72;;;16.80;99.90;;;;;;5097594;28;20050;-70
2021/03/24 01:06:24;;;;;;;24.48;5.40;;;16.60;99.90;;;;;;5097145;28;20036;-70
2021/03/24 01:08:56;;;;;;;22.75;4.68;;;16.60;99.90;;;;;;5077629;28;20036;-70
2021/03/24 01:11:23;;;;;;;23.48;5.50;;;16.40;99.90;;;;;;5075534;28;20048;-69
2021/03/24 01:13:50;;;;;;;22.75;4.72;;;16.40;99.90;;;;;;5094794;28;20025;-68
2021/03/24 01:16:16;;;;;;;28.92;5.22;;;16.40;99.90;;;;;;5089177;28;20028;-69
2021/03/24 01:18:43;;;;;;;28.02;4.38;;;16.30;99.90;;;;;;5094932;28;20024;-68
2021/03/24 01:21:10;;;;;;;16.77;4.20;;;16.20;99.90;;;;;;5069890;28;20040;-68
2021/03/24 01:23:43;;;;;;;24.85;4.30;;;16.30;99.90;;;;;;5093977;28;20020;-69
2021/03/24 01:26:38;;;;;;;27.27;5.35;;;16.00;99.90;;;;;;5062844;28;20048;-68
2021/03/24 01:29:03;;;;;;;20.88;5.35;;;15.90;99.90;;;;;;5079505;28;20067;-70
2021/03/24 01:31:31;;;;;;;29.63;6.20;;;15.80;99.90;;;;;;5080896;28;20020;-69
2021/03/24 01:34:00;;;;;;;23.83;4.68;;;15.80;99.90;;;;;;5060512;28;20028;-69
2021/03/24 01:36:28;;;;;;;26.05;5.25;;;15.80;99.90;;;;;;5077991;28;20141;-68
2021/03/24 01:38:56;;;;;;;19.95;5.70;;;15.80;99.90;;;;;;5087941;28;20028;-69
2021/03/24 01:41:25;;;;;;;19.30;4.60;;;15.70;99.90;;;;;;5081389;28;20124;-68
2021/03/24 01:43:54;;;;;;;23.95;4.93;;;15.60;99.90;;;;;;5077405;28;20020;-68
2021/03/24 01:46:27;;;;;;;33.10;6.63;;;15.60;99.90;;;;;;5086130;28;20021;-66
2021/03/24 01:49:04;;;;;;;28.80;5.20;;;15.50;99.90;;;;;;5074222;28;20052;-67
2021/03/24 01:51:44;;;;;;;24.02;4.72;;;15.30;99.90;;;;;;5081072;28;20029;-66
2021/03/24 01:54:16;;;;;;;20.30;4.00;;;15.40;99.90;;;;;;5074683;28;20035;-67
2021/03/24 01:56:47;;;;;;;28.40;5.80;;;15.40;99.90;;;;;;5073175;28;20035;-66
2021/03/24 01:59:15;;;;;;;26.05;5.43;;;15.30;99.90;;;;;;5078058;28;20606;-67
2021/03/24 02:01:42;;;;;;;24.03;4.20;;;15.20;99.90;;;;;;5079837;28;20024;-67
2021/03/24 02:04:09;;;;;;;35.30;5.10;;;15.10;99.90;;;;;;5079952;28;20035;-68
2021/03/24 02:07:06;;;;;;;21.50;4.95;;;15.20;99.90;;;;;;5070922;28;20024;-67
2021/03/24 02:09:40;;;;;;;25.40;5.50;;;15.10;99.90;;;;;;5075796;28;20040;-67
2021/03/24 02:12:25;;;;;;;35.28;4.57;;;15.00;99.90;;;;;;5072455;28;20028;-65
2021/03/24 02:15:18;;;;;;;23.73;4.72;;;14.90;99.90;;;;;;5075319;28;20016;-65
2021/03/24 02:17:47;;;;;;;32.08;6.50;;;14.90;99.90;;;;;;5072749;28;20102;-66
2021/03/24 02:20:33;;;;;;;32.65;5.90;;;14.70;99.90;;;;;;5072235;28;20129;-65
2021/03/24 02:23:26;;;;;;;28.13;5.82;;;14.80;99.90;;;;;;5078225;28;20040;-66
2021/03/24 02:25:59;;;;;;;22.33;6.07;;;14.80;99.90;;;;;;5076113;28;20056;-66
2021/03/24 02:28:27;;;;;;;32.33;5.95;;;14.70;99.90;;;;;;5074038;28;20072;-67
2021/03/24 02:30:57;;;;;;;33.00;5.57;;;14.70;99.90;;;;;;5079974;28;21297;-67
2021/03/24 02:33:29;;;;;;;42.10;7.38;;;14.70;99.90;;;;;;5076773;28;20028;-68
2021/03/24 02:36:03;;;;;;;31.80;5.82;;;14.70;99.90;;;;;;5075538;28;20024;-67
2021/03/24 02:38:32;;;;;;;32.78;5.97;;;14.60;99.90;;;;;;5080948;28;20525;-69
2021/03/24 02:41:00;;;;;;;33.70;6.53;;;14.60;99.90;;;;;;5075220;28;20124;-67
2021/03/24 02:43:28;;;;;;;38.22;7.07;;;14.40;99.90;;;;;;5075913;28;20048;-68
2021/03/24 02:45:56;;;;;;;29.00;5.22;;;14.40;99.90;;;;;;5076946;28;20036;-67
2021/03/24 02:48:29;;;;;;;23.70;5.75;;;14.20;99.90;;;;;;5063263;28;20032;-67
2021/03/24 02:50:57;;;;;;;24.30;5.85;;;13.90;99.90;;;;;;5077744;28;20134;-67
2021/03/24 02:53:26;;;;;;;27.60;6.00;;;13.80;99.90;;;;;;5081692;28;20111;-67
2021/03/24 02:55:56;;;;;;;26.00;5.45;;;13.70;99.90;;;;;;5078515;28;20032;-67
2021/03/24 02:58:22;;;;;;;40.20;6.03;;;13.60;99.90;;;;;;5076122;28;20028;-68
2021/03/24 03:00:49;;;;;;;37.78;7.63;;;13.60;99.90;;;;;;5058330;28;20055;-67
2021/03/24 03:03:28;;;;;;;21.08;6.07;;;13.60;99.90;;;;;;5077296;28;20028;-68
2021/03/24 03:05:57;;;;;;;28.40;6.82;;;13.50;99.90;;;;;;5076452;28;20039;-68
2021/03/24 03:08:35;;;;;;;27.95;6.05;;;13.50;99.90;;;;;;5082555;28;20043;-68
2021/03/24 03:11:22;;;;;;;28.60;5.40;;;13.50;99.90;;;;;;5087139;28;20025;-67
2021/03/24 03:14:07;;;;;;;34.30;8.18;;;13.50;99.90;;;;;;5083568;28;20028;-67
2021/03/24 03:16:39;;;;;;;39.40;8.07;;;13.50;99.90;;;;;;5056059;28;20089;-67
2021/03/24 03:19:30;;;;;;;34.45;6.78;;;13.50;99.90;;;;;;5074082;28;20035;-66
2021/03/24 03:22:05;;;;;;;26.10;5.10;;;13.40;99.90;;;;;;5083151;28;20029;-67
2021/03/24 03:24:43;;;;;;;24.15;6.22;;;13.40;99.90;;;;;;5057440;28;20031;-66
2021/03/24 03:27:13;;;;;;;32.13;5.03;;;13.40;99.90;;;;;;5076177;28;20135;-66
2021/03/24 03:29:43;;;;;;;26.52;5.50;;;13.30;99.90;;;;;;5075154;28;20689;-67
2021/03/24 03:32:16;;;;;;;23.60;5.85;;;13.30;99.90;;;;;;5090031;28;20055;-66
2021/03/24 03:35:07;;;;;;;35.20;7.40;;;13.30;99.90;;;;;;5072331;28;20023;-67
2021/03/24 03:37:34;;;;;;;27.13;5.22;;;13.30;99.90;;;;;;5070184;28;20051;-67
2021/03/24 03:40:01;;;;;;;22.40;6.47;;;13.30;99.90;;;;;;5075727;28;20051;-66
2021/03/24 03:42:30;;;;;;;25.23;5.40;;;13.30;99.90;;;;;;5077379;28;20074;-66
2021/03/24 03:45:00;;;;;;;29.45;5.50;;;13.30;99.90;;;;;;5056956;28;20024;-66
2021/03/24 03:47:27;;;;;;;31.02;5.70;;;13.30;99.90;;;;;;5060579;28;20036;-67
2021/03/24 03:49:53;;;;;;;23.95;6.20;;;13.20;99.90;;;;;;5058879;28;20585;-67
2021/03/24 03:52:50;;;;;;;27.63;5.82;;;13.20;99.90;;;;;;5075749;28;20024;-65
2021/03/24 03:55:43;;;;;;;32.20;6.80;;;13.10;99.90;;;;;;5048223;28;20047;-66
2021/03/24 03:58:21;;;;;;;35.45;4.72;;;13.10;99.90;;;;;;5075744;28;20035;-66
2021/03/24 04:01:13;;;;;;;32.53;7.28;;;13.10;99.90;;;;;;5056607;28;20024;-66
2021/03/24 04:03:51;;;;;;;31.25;6.22;;;13.10;99.90;;;;;;5061116;28;20037;-65
2021/03/24 04:06:23;;;;;;;24.33;4.97;;;13.10;99.90;;;;;;5066012;28;20367;-66
2021/03/24 04:08:52;;;;;;;30.80;6.90;;;13.10;99.90;;;;;;5084311;28;20083;-66
2021/03/24 04:11:23;;;;;;;33.67;6.30;;;13.10;99.90;;;;;;5085073;28;20031;-65
2021/03/24 04:14:03;;;;;;;34.15;6.88;;;13.10;99.90;;;;;;5089048;28;20035;-65
2021/03/24 04:17:05;;;;;;;33.03;6.13;;;13.00;99.90;;;;;;5090034;28;20024;-65
2021/03/24 04:20:02;;;;;;;26.75;5.88;;;13.00;99.90;;;;;;5071711;28;20066;-66
2021/03/24 04:22:33;;;;;;;25.65;5.60;;;13.00;99.90;;;;;;5084288;28;20063;-65
2021/03/24 04:25:02;;;;;;;30.25;6.13;;;12.90;99.90;;;;;;5065070;28;20062;-63
2021/03/24 04:27:38;;;;;;;31.58;6.05;;;12.90;99.90;;;;;;5081603;28;20215;-65
2021/03/24 04:30:14;;;;;;;43.65;7.72;;;12.90;99.90;;;;;;5065703;28;20027;-64
2021/03/24 04:32:47;;;;;;;28.15;5.95;;;12.90;99.90;;;;;;5086595;28;20417;-65
2021/03/24 04:35:19;;;;;;;35.50;7.53;;;12.90;99.90;;;;;;5067713;28;20042;-65
2021/03/24 04:37:52;;;;;;;31.55;6.07;;;12.90;99.90;;;;;;5084202;28;20024;-65
2021/03/24 04:40:49;;;;;;;33.85;7.07;;;12.90;99.90;;;;;;5083999;28;20024;-64
2021/03/24 04:43:34;;;;;;;;;;;;;;;;;;;;;
2021/03/24 04:46:27;;;;;;;24.20;7.40;;;12.80;99.90;;;;;;5084977;28;20042;-67
2021/03/24 04:49:00;;;;;;;24.38;5.85;;;12.80;99.90;;;;;;5071259;28;20040;-67
2021/03/24 04:51:35;;;;;;;25.00;6.35;;;12.80;99.90;;;;;;5084703;28;20023;-68
2021/03/24 04:54:13;;;;;;;39.08;7.13;;;12.70;99.90;;;;;;5082797;28;20100;-64
2021/03/24 04:56:43;;;;;;;24.40;6.15;;;12.70;99.90;;;;;;5065703;28;20036;-66
2021/03/24 04:59:16;;;;;;;30.05;6.22;;;12.70;99.90;;;;;;5080592;28;20073;-64
2021/03/24 05:01:49;;;;;;;41.78;6.35;;;12.80;99.90;;;;;;5080871;28;20035;-65
2021/03/24 05:04:31;;;;;;;23.63;5.55;;;12.70;99.90;;;;;;5067455;28;20089;-65
2021/03/24 05:07:07;;;;;;;29.05;6.35;;;12.70;99.90;;;;;;5082174;28;20249;-65
2021/03/24 05:09:37;;;;;;;37.47;5.70;;;12.70;99.90;;;;;;5069306;28;20511;-65
2021/03/24 05:12:14;;;;;;;25.23;6.15;;;12.70;99.90;;;;;;5074067;28;20039;-65
2021/03/24 05:15:02;;;;;;;21.42;5.22;;;12.80;99.90;;;;;;5061794;28;20112;-65
2021/03/24 05:17:38;;;;;;;30.10;5.97;;;12.70;99.90;;;;;;5079429;28;20483;-66
2021/03/24 05:20:21;;;;;;;28.75;5.93;;;12.70;99.90;;;;;;5078354;28;20036;-66
2021/03/24 05:23:10;;;;;;;27.55;6.60;;;12.70;99.90;;;;;;5061898;28;20027;-65
2021/03/24 05:25:42;;;;;;;32.10;6.22;;;12.70;99.90;;;;;;5064980;28;20970;-65
2021/03/24 05:28:41;;;;;;;23.40;4.93;;;12.60;99.90;;;;;;5063145;28;20052;-64
2021/03/24 05:31:18;;;;;;;32.08;6.72;;;12.70;99.90;;;;;;5059605;28;20023;-65
2021/03/24 05:33:51;;;;;;;41.70;8.68;;;12.60;99.90;;;;;;5060317;28;20024;-65
2021/03/24 05:36:24;;;;;;;27.58;7.30;;;12.60;99.90;;;;;;5059345;28;20027;-64
2021/03/24 05:38:55;;;;;;;27.58;5.72;;;12.70;99.90;;;;;;5081812;28;20040;-65
2021/03/24 05:42:14;;;;;;;44.25;8.18;;;12.70;99.90;;;;;;5079363;28;20032;-65
2021/03/24 05:44:59;;;;;;;42.75;7.40;;;12.60;99.90;;;;;;5048173;28;20036;-66
2021/03/24 05:47:45;;;;;;;28.67;6.35;;;12.70;99.90;;;;;;5062624;28;20036;-65
2021/03/24 05:50:56;;;;;;;26.88;5.72;;;12.70;99.90;;;;;;5062567;28;20028;-65
2021/03/24 05:53:42;;;;;;;24.30;5.65;;;12.60;99.90;;;;;;5080532;28;20016;-66
2021/03/24 05:56:42;;;;;;;28.05;6.15;;;12.60;99.90;;;;;;5079392;28;20031;-65
2021/03/24 05:59:24;;;;;;;32.38;7.03;;;12.60;99.90;;;;;;5052359;28;20612;-64
2021/03/24 06:02:07;;;;;;;31.23;7.47;;;12.60;99.90;;;;;;5065166;28;20597;-64
2021/03/24 06:04:55;;;;;;;30.40;6.28;;;12.60;99.90;;;;;;5079036;28;20103;-65
2021/03/24 06:08:00;;;;;;;32.17;7.38;;;12.50;99.90;;;;;;5063249;28;20391;-64
2021/03/24 06:11:03;;;;;;;38.00;5.78;;;12.60;99.90;;;;;;5060708;28;20565;-65
2021/03/24 06:13:54;;;;;;;24.90;5.72;;;12.60;99.90;;;;;;5078143;28;20024;-66
2021/03/24 06:16:51;;;;;;;28.38;6.50;;;12.70;99.90;;;;;;5077680;28;20490;-64
2021/03/24 06:19:29;;;;;;;29.23;6.47;;;12.70;99.90;;;;;;5031731;28;20039;-64
2021/03/24 06:22:23;;;;;;;24.67;5.97;;;12.60;99.90;;;;;;5070075;28;20028;-65
2021/03/24 06:25:35;;;;;;;25.58;6.07;;;12.70;99.90;;;;;;5065163;28;20589;-64
2021/03/24 06:28:18;;;;;;;29.35;6.10;;;12.50;99.90;;;;;;5058282;28;20048;-64
2021/03/24 06:30:54;;;;;;;34.42;6.97;;;12.40;99.90;;;;;;5078027;28;20052;-64
2021/03/24 06:33:32;;;;;;;32.28;7.25;;;12.40;99.90;;;;;;5078295;28;20094;-63
2021/03/24 06:36:35;;;;;;;35.33;6.97;;;12.50;99.90;;;;;;5058763;28;20147;-65
2021/03/24 06:39:17;;;;;;;40.50;8.77;;;12.50;99.90;;;;;;5060647;28;20024;-63
2021/03/24 06:41:50;;;;;;;28.15;7.57;;;12.50;99.90;;;;;;5058289;28;20035;-64
2021/03/24 06:45:23;;;;;;;29.77;6.78;;;12.50;99.90;;;;;;5078298;28;20123;-64
2021/03/24 06:48:22;;;;;;;;;;;;;;;;;;;;;
2021/03/24 06:51:07;;;;;;;28.60;7.53;;;12.30;99.90;;;;;;5033073;28;20046;-65
2021/03/24 06:54:08;;;;;;;25.65;5.97;;;12.30;99.90;;;;;;5072417;28;20082;-64
2021/03/24 06:57:05;;;;;;;27.27;6.63;;;12.30;99.90;;;;;;5076494;28;20039;-64
2021/03/24 06:59:54;;;;;;;34.10;7.38;;;12.20;99.90;;;;;;5059926;28;20039;-64
2021/03/24 07:03:03;;;;;;;31.45;6.72;;;12.10;99.90;;;;;;5080117;28;20140;-64
2021/03/24 07:05:47;;;;;;;29.20;7.18;;;11.90;99.90;;;;;;5080399;28;20177;-64
2021/03/24 07:08:38;;;;;;;24.60;5.75;;;11.90;99.90;;;;;;5060062;28;20202;-64
2021/03/24 07:11:29;;;;;;;28.23;5.88;;;11.50;99.90;;;;;;5075748;28;20034;-63
2021/03/24 07:14:42;;;;;;;34.88;6.35;;;11.30;99.90;;;;;;5075954;28;20504;-63
2021/03/24 07:17:24;;;;;;;29.55;6.43;;;11.20;99.90;;;;;;5046466;28;20051;-63
2021/03/24 07:20:38;;;;;;;37.67;6.88;;;11.40;99.90;;;;;;5075956;28;20484;-63
2021/03/24 07:23:32;;;;;;;21.70;6.20;;;11.40;99.90;;;;;;5001978;28;20032;-65
2021/03/24 07:26:10;;;;;;;28.27;6.13;;;11.30;99.90;;;;;;5057483;28;20037;-63
2021/03/24 07:29:00;;;;;;;26.40;5.57;;;11.40;99.90;;;;;;5075573;28;20078;-63
2021/03/24 07:32:03;;;;;;;28.80;6.50;;;11.40;99.90;;;;;;5076775;28;20162;-64
2021/03/24 07:35:03;;;;;;;33.47;7.28;;;11.50;99.90;;;;;;5066544;28;20024;-63
2021/03/24 07:38:08;;;;;;;31.80;6.75;;;11.50;99.90;;;;;;5081922;28;20020;-63
2021/03/24 07:40:58;;;;;;;29.25;8.13;;;11.50;99.90;;;;;;5004616;28;20042;-64
2021/03/24 07:43:49;;;;;;;24.70;7.32;;;11.40;99.90;;;;;;5007415;28;20030;-63
2021/03/24 07:46:58;;;;;;;26.42;6.72;;;11.30;99.90;;;;;;5067412;28;20047;-64
2021/03/24 07:50:03;;;;;;;29.80;6.53;;;11.30;99.90;;;;;;5057906;28;20089;-64
2021/03/24 07:52:45;;;;;;;27.90;7.00;;;11.10;99.90;;;;;;5078325;28;20039;-64
2021/03/24 07:55:36;;;;;;;34.83;6.97;;;10.90;99.90;;;;;;5056989;28;20025;-63
2021/03/24 07:58:29;;;;;;;31.15;6.68;;;10.90;99.90;;;;;;5075629;28;20029;-64
2021/03/24 08:01:16;;;;;;;63.72;9.98;;;11.10;99.90;;;;;;5075134;28;20020;-63
2021/03/24 08:04:11;;;;;;;36.22;6.35;;;11.00;99.90;;;;;;5072919;28;20085;-63
2021/03/24 08:07:03;;;;;;;33.05;8.02;;;11.20;99.90;;;;;;5075916;28;20072;-64
2021/03/24 08:09:58;;;;;;;28.10;6.38;;;11.20;99.90;;;;;;5054320;28;20089;-64
2021/03/24 08:12:55;;;;;;;32.58;7.05;;;11.20;99.90;;;;;;5075439;28;20109;-64
2021/03/24 08:15:53;;;;;;;25.45;5.15;;;11.20;99.90;;;;;;5059288;28;20028;-65
2021/03/24 08:18:47;;;;;;;23.10;5.80;;;11.10;99.90;;;;;;5062835;28;20028;-64
2021/03/24 08:21:25;;;;;;;31.55;7.65;;;11.10;99.90;;;;;;5060655;28;20154;-63
2021/03/24 08:24:20;;;;;;;25.00;6.22;;;11.20;99.90;;;;;;5060531;28;20020;-65
2021/03/24 08:26:50;;;;;;;27.67;6.47;;;11.20;99.90;;;;;;5064159;28;20131;-65
2021/03/24 08:29:33;;;;;;;25.95;5.45;;;11.20;99.90;;;;;;5057411;28;20776;-65
2021/03/24 08:32:41;;;;;;;34.50;6.78;;;11.30;99.90;;;;;;5058392;28;20043;-65
2021/03/24 08:35:53;;;;;;;28.80;6.40;;;11.30;99.90;;;;;;5063946;28;20114;-64
2021/03/24 08:38:32;;;;;;;26.67;6.53;;;11.30;99.90;;;;;;5059953;28;20165;-64
2021/03/24 08:40:59;;;;;;;31.27;7.07;;;11.20;99.90;;;;;;5058496;28;20140;-64
2021/03/24 08:43:48;;;;;;;20.27;5.35;;;11.30;99.90;;;;;;5076493;28;20092;-64
2021/03/24 08:46:44;;;;;;;27.85;6.38;;;11.30;99.90;;;;;;5076881;28;20052;-64
2021/03/24 08:49:28;;;;;;;36.38;6.93;;;11.20;99.90;;;;;;5077544;28;20496;-64
2021/03/24 08:52:23;;;;;;;25.23;8.23;;;11.20;99.90;;;;;;5079705;28;20032;-64
2021/03/24 08:54:50;;;;;;;41.13;6.57;;;11.30;99.90;;;;;;5067363;28;20029;-63
2021/03/24 08:57:46;;;;;;;32.70;8.13;;;11.30;99.90;;;;;;5064585;28;20028;-63
2021/03/24 09:00:41;;;;;;;22.95;6.88;;;11.20;99.90;;;;;;5068466;28;20025;-64
2021/03/24 09:03:33;;;;;;;24.83;6.10;;;11.20;99.90;;;;;;5062854;28;20035;-64
2021/03/24 09:06:46;;;;;;;29.85;8.27;;;11.20;99.90;;;;;;5080409;28;20036;-63
2021/03/24 09:09:34;;;;;;;27.48;6.78;;;11.20;99.90;;;;;;5004405;28;20525;-65
2021/03/24 09:12:22;;;;;;;28.20;7.15;;;11.10;99.90;;;;;;5061042;28;20028;-64
2021/03/24 09:15:02;;;;;;;32.25;7.38;;;11.10;99.90;;;;;;5077506;28;20024;-64
2021/03/24 09:17:35;;;;;;;31.33;7.10;;;11.10;99.90;;;;;;5064920;28;20028;-64
2021/03/24 09:20:14;;;;;;;35.83;6.38;;;11.10;99.90;;;;;;5077690;28;20028;-64
2021/03/24 09:23:14;;;;;;;29.92;7.38;;;11.00;99.90;;;;;;5073347;28;20539;-62
2021/03/24 09:25:49;;;;;;;32.83;9.38;;;10.90;99.90;;;;;;5080263;28;20028;-64
2021/03/24 09:28:48;;;;;;;27.38;6.45;;;10.80;99.90;;;;;;5072193;28;20110;-63
2021/03/24 09:31:17;;;;;;;;;;;10.70;99.90;;;;;;5076702;28;20035;-65
2021/03/24 09:33:50;;;;;;;28.63;7.53;;;10.70;99.90;;;;;;5079264;28;20006;-63
2021/03/24 09:36:35;;;;;;;33.85;6.30;;;10.70;99.90;;;;;;5060760;28;20032;-63
2021/03/24 09:39:18;;;;;;;32.30;6.28;;;10.60;99.90;;;;;;5061643;28;20058;-64
2021/03/24 09:42:03;;;;;;;36.50;6.65;;;10.70;99.90;;;;;;5056726;28;20485;-63
2021/03/24 09:44:45;;;;;;;26.85;6.20;;;10.70;99.90;;;;;;5072037;28;20048;-64
2021/03/24 09:47:29;;;;;;;35.78;8.35;;;10.70;99.90;;;;;;5073594;28;20035;-64
2021/03/24 09:50:04;;;;;;;26.25;6.28;;;10.80;99.90;;;;;;5081143;28;20499;-63
2021/03/24 09:52:56;;;;;;;33.28;6.88;;;10.60;99.90;;;;;;5060528;28;20024;-63
2021/03/24 09:55:33;;;;;;;24.83;7.20;;;10.30;99.90;;;;;;5075975;28;20044;-65
2021/03/24 09:58:21;;;;;;;28.67;6.20;;;10.30;99.90;;;;;;5076878;28;20056;-63
2021/03/24 10:01:02;;;;;;;26.63;5.90;;;10.40;99.90;;;;;;5078800;28;20033;-64
2021/03/24 10:03:41;;;;;;;20.25;5.18;;;10.40;99.90;;;;;;5074933;28;20035;-64
2021/03/24 10:06:31;;;;;;;33.65;6.15;;;10.40;99.90;;;;;;5075418;28;20036;-64
2021/03/24 10:09:39;;;;;;;22.50;5.35;;;10.50;99.90;;;;;;5018972;28;20051;-64
2021/03/24 10:12:31;;;;;;;21.75;5.88;;;10.50;99.90;;;;;;5037097;28;20040;-64
2021/03/24 10:15:29;;;;;;;28.67;7.35;;;10.40;99.90;;;;;;5068193;28;20054;-65
2021/03/24 10:17:55;;;;;;;38.90;7.45;;;10.40;99.90;;;;;;5050206;28;20032;-65
2021/03/24 10:20:27;;;;;;;26.52;6.10;;;10.50;99.90;;;;;;5075407;28;20822;-65
2021/03/24 10:23:03;;;;;;;32.97;6.63;;;10.50;99.90;;;;;;5071204;28;20527;-65
2021/03/24 10:25:45;;;;;;;21.60;5.22;;;10.40;99.90;;;;;;5073839;28;20035;-64
2021/03/24 10:28:21;;;;;;;27.58;6.35;;;10.40;99.90;;;;;;5073584;28;20414;-64
2021/03/24 10:31:23;;;;;;;31.92;7.28;;;10.30;99.90;;;;;;5074281;28;20024;-65
2021/03/24 10:34:00;;;;;;;26.08;5.82;;;10.30;99.90;;;;;;5002105;28;20061;-64
2021/03/24 10:36:42;;;;;;;25.80;6.00;;;10.30;99.90;;;;;;5077211;28;20065;-64
2021/03/24 10:39:28;;;;;;;25.10;6.18;;;10.30;99.90;;;;;;5075434;28;20032;-64
2021/03/24 10:41:59;;;;;;;28.38;6.32;;;10.30;99.90;;;;;;5075692;28;20032;-63
2021/03/24 10:44:41;;;;;;;30.65;6.30;;;10.20;99.90;;;;;;5065436;28;20023;-64
2021/03/24 10:47:38;;;;;;;36.30;5.90;;;10.30;99.90;;;;;;5080497;28;20599;-64
2021/03/24 10:50:18;;;;;;;28.05;6.35;;;10.30;99.90;;;;;;5081326;28;20055;-65
2021/03/24 10:53:18;;;;;;;34.50;7.13;;;10.30;99.90;;;;;;5079770;28;20478;-64
2021/03/24 10:55:55;;;;;;;25.38;5.43;;;10.30;99.90;;;;;;5081690;28;20020;-64
2021/03/24 10:59:00;;;;;;;25.40;7.07;;;10.20;99.90;;;;;;5058818;28;20035;-65
2021/03/24 11:01:47;;;;;;;24.40;5.70;;;10.20;99.90;;;;;;5041866;28;20042;-64
2021/03/24 11:05:05;;;;;;;29.65;6.30;;;10.20;99.90;;;;;;5079609;28;20054;-64
2021/03/24 11:08:00;;;;;;;20.15;5.45;;;10.20;99.90;;;;;;5043504;28;20535;-65
2021/03/24 11:10:43;;;;;;;24.45;6.28;;;10.20;99.90;;;;;;5080646;28;20104;-64
2021/03/24 11:13:30;;;;;;;22.23;6.57;;;10.20;99.90;;;;;;5083311;28;20055;-64
2021/03/24 11:16:03;;;;;;;20.98;5.72;;;10.20;99.90;;;;;;5063573;28;20027;-63
2021/03/24 11:18:40;;;;;;;29.67;8.80;;;10.10;99.90;;;;;;5064386;28;20032;-64
2021/03/24 11:21:32;;;;;;;29.88;6.53;;;10.10;99.90;;;;;;5082133;28;20100;-64
2021/03/24 11:24:14;;;;;;;18.02;5.30;;;10.00;99.90;;;;;;5045786;28;20032;-64
2021/03/24 11:26:54;;;;;;;24.65;4.97;;;10.00;99.90;;;;;;5076265;28;20055;-64
2021/03/24 11:29:24;;;;;;;23.33;5.28;;;10.10;99.90;;;;;;5077360;28;20091;-64
2021/03/24 11:32:20;;;;;;;19.10;5.25;;;10.00;99.90;;;;;;5076470;28;20040;-64
2021/03/24 11:34:57;;;;;;;24.65;6.63;;;10.00;99.90;;;;;;5073926;28;20154;-64
2021/03/24 11:37:41;;;;;;;23.48;5.65;;;9.90;99.90;;;;;;5077480;28;20020;-65
2021/03/24 11:40:50;;;;;;;19.30;6.05;;;9.90;99.90;;;;;;5078422;28;20042;-63
2021/03/24 11:43:23;;;;;;;25.08;5.93;;;9.80;99.90;;;;;;5076254;28;20092;-64
2021/03/24 11:46:09;;;;;;;22.42;6.00;;;9.90;99.90;;;;;;5058499;28;20092;-64
2021/03/24 11:48:53;;;;;;;20.38;5.72;;;9.90;99.90;;;;;;5076266;28;20044;-64
2021/03/24 11:51:25;;;;;;;24.63;5.40;;;9.90;99.90;;;;;;5078050;28;20049;-63
2021/03/24 11:54:24;;;;;;;26.30;5.13;;;9.90;99.90;;;;;;5060975;28;20025;-64
2021/03/24 11:57:09;;;;;;;23.95;5.10;;;9.90;99.90;;;;;;5077375;28;20081;-63
2021/03/24 11:59:56;;;;;;;26.40;6.72;;;9.80;99.90;;;;;;5076538;28;20570;-64
2021/03/24 12:02:56;;;;;;;23.65;5.25;;;9.80;99.90;;;;;;5075028;28;20062;-64
2021/03/24 12:05:26;;;;;;;27.85;6.70;;;9.80;99.90;;;;;;5072020;28;20043;-66
2021/03/24 12:08:07;;;;;;;23.48;5.63;;;9.70;99.90;;;;;;5074120;28;20081;-64
2021/03/24 12:10:56;;;;;;;23.00;5.10;;;9.60;99.90;;;;;;5075792;28;20032;-65
2021/03/24 12:13:32;;;;;;;24.60;5.82;;;9.50;99.90;;;;;;5060667;28;20029;-64
2021/03/24 12:16:03;;;;;;;21.67;6.32;;;9.30;99.90;;;;;;5060327;28;20417;-64
2021/03/24 12:18:44;;;;;;;22.73;5.57;;;9.30;99.90;;;;;;5075525;28;20028;-65
2021/03/24 12:21:20;;;;;;;32.58;7.35;;;9.40;99.90;;;;;;5055749;28;20035;-64
2021/03/24 12:23:48;;;;;;;20.30;6.05;;;9.40;99.90;;;;;;5076517;28;20137;-64
2021/03/24 12:26:28;;;;;;;24.90;5.80;;;9.40;99.90;;;;;;5062187;28;20636;-66
2021/03/24 12:29:07;;;;;;;30.92;5.97;;;9.40;99.90;;;;;;5073970;28;20056;-67
2021/03/24 12:31:44;;;;;;;;;;;9.40;99.90;;;;;;5075709;28;20056;-64
2021/03/24 12:34:16;;;;;;;31.73;6.10;;;9.30;99.90;;;;;;5074490;28;19934;-64
2021/03/24 12:36:59;;;;;;;28.25;6.72;;;9.30;99.90;;;;;;5074775;28;20078;-63
2021/03/24 12:39:32;;;;;;;24.33;5.32;;;9.30;99.90;;;;;;5074978;28;20032;-65
2021/03/24 12:42:26;;;;;;;21.25;5.13;;;9.30;99.90;;;;;;5073628;28;20043;-64
2021/03/24 12:44:53;;;;;;;24.60;5.20;;;9.30;99.90;;;;;;5074494;28;20028;-64
2021/03/24 12:47:42;;;;;;;27.98;5.38;;;9.20;99.90;;;;;;5056460;28;20070;-64
2021/03/24 12:50:12;;;;;;;22.42;5.55;;;9.10;99.90;;;;;;5076828;28;20044;-64
2021/03/24 12:53:03;;;;;;;19.38;5.93;;;9.10;99.90;;;;;;5075293;28;20048;-64
2021/03/24 12:55:31;;;;;;;24.80;5.93;;;9.10;99.90;;;;;;5075627;28;20154;-64
2021/03/24 12:58:23;;;;;;;27.30;5.90;;;9.20;99.90;;;;;;5061350;28;20020;-64
2021/03/24 13:01:05;;;;;;;38.25;6.53;;;9.10;99.90;;;;;;5058047;28;20031;-64
2021/03/24 13:04:05;;;;;;;31.17;6.72;;;9.20;99.90;;;;;;5074578;28;20089;-64
2021/03/24 13:06:34;;;;;;;28.30;6.93;;;9.10;99.90;;;;;;5074084;28;20031;-65
2021/03/24 13:09:33;;;;;;;22.60;5.15;;;9.00;99.90;;;;;;5070670;28;20135;-64
2021/03/24 13:12:24;;;;;;;26.60;5.07;;;9.00;99.90;;;;;;5073832;28;20031;-64
2021/03/24 13:14:59;;;;;;;25.65;6.55;;;9.00;99.90;;;;;;5055442;28;20036;-64
2021/03/24 13:17:47;;;;;;;22.58;6.60;;;8.90;99.90;;;;;;5074241;28;20025;-65
2021/03/24 13:20:24;;;;;;;24.60;5.97;;;8.70;99.90;;;;;;5072023;28;20024;-64
2021/03/24 13:23:14;;;;;;;36.55;6.43;;;8.60;99.90;;;;;;5072085;28;20031;-65
2021/03/24 13:25:47;;;;;;;23.95;5.75;;;8.70;99.90;;;;;;5073557;28;20119;-65
2021/03/24 13:28:46;;;;;;;25.00;7.13;;;8.70;99.90;;;;;;5072983;28;20333;-65
2021/03/24 13:31:24;;;;;;;27.73;5.65;;;8.70;99.90;;;;;;5052797;28;20145;-64
2021/03/24 13:34:02;;;;;;;29.98;6.78;;;8.70;99.90;;;;;;5072183;28;20037;-64
2021/03/24 13:36:49;;;;;;;43.85;8.88;;;8.70;99.90;;;;;;5082629;28;20032;-64
2021/03/24 13:39:39;;;;;;;19.77;6.00;;;8.70;99.90;;;;;;5082324;28;20028;-65
2021/03/24 13:42:32;;;;;;;30.33;7.50;;;8.80;99.90;;;;;;5078021;28;20038;-64
2021/03/24 13:45:16;;;;;;;26.58;5.70;;;8.70;99.90;;;;;;5062956;28;20032;-64
2021/03/24 13:47:52;;;;;;;26.77;6.35;;;8.70;99.90;;;;;;5073339;28;20020;-64
2021/03/24 13:50:34;;;;;;;28.80;6.63;;;8.70;99.90;;;;;;5073628;28;20105;-64
2021/03/24 13:53:13;;;;;;;17.00;5.65;;;8.70;99.90;;;;;;5075603;28;20059;-65
2021/03/24 13:55:47;;;;;;;20.60;6.88;;;8.70;99.90;;;;;;5052560;28;20045;-64